CUA weather

Ciudad Constitución Airport
Ciudad Constitución, Baja California Sur, Mexico

Public forecast

Using degrees Celsius for public forecast. Weather courtesy of forecast.io.

Closest aviation weather report (METAR) to Ciudad Constitución Airport

Report is more than 6 hours old.

Closest report is Loreto International Airport, 58.0 nm (107.4 km) NNE. Retrieved 2020/08/04 01:41 UTC (7 hours ago):

MMLT 040141Z 16008KT 9SM SKC 32/25 A2979 RMK HZY

Closest aviation forecast (TAF) to Ciudad Constitución Airport

Closest forecast is Loreto International Airport, 58.0 nm (107.4 km) NNE. Retrieved 2020/08/04 06:27 UTC (2 hours ago):

TAF MMLT 040525Z 0406/0506 16005KT P6SM SKC FM041800 14012KT P6SM SKC FM050400 15005KT P6SM SKC